sensor_id;sensor_type;location;lat;lon;timestamp;pressure;altitude;pressure_sealevel;temperature;humidity
51321;BME280;38732;49.556;6.286;2023-03-23T00:00:11;98776.00;;;15.41;70.37
51321;BME280;38732;49.556;6.286;2023-03-23T00:02:39;98785.22;;;14.94;66.49
51321;BME280;38732;49.556;6.286;2023-03-23T00:05:08;98789.28;;;15.32;66.26
51321;BME280;38732;49.556;6.286;2023-03-23T00:07:36;98795.34;;;14.39;69.06
51321;BME280;38732;49.556;6.286;2023-03-23T00:10:05;98785.81;;;15.03;66.80
51321;BME280;38732;49.556;6.286;2023-03-23T00:12:33;98782.63;;;15.51;64.78
51321;BME280;38732;49.556;6.286;2023-03-23T00:15:03;98787.69;;;15.56;64.76
51321;BME280;38732;49.556;6.286;2023-03-23T00:17:33;98796.44;;;13.96;71.42
51321;BME280;38732;49.556;6.286;2023-03-23T00:20:03;98794.53;;;14.37;66.60
51321;BME280;38732;49.556;6.286;2023-03-23T00:22:31;98787.13;;;13.51;71.69
51321;BME280;38732;49.556;6.286;2023-03-23T00:24:59;98776.44;;;13.99;71.43
51321;BME280;38732;49.556;6.286;2023-03-23T00:27:27;98771.22;;;13.65;70.86
51321;BME280;38732;49.556;6.286;2023-03-23T00:29:56;98775.63;;;13.97;70.29
51321;BME280;38732;49.556;6.286;2023-03-23T00:32:24;98777.28;;;13.28;72.81
51321;BME280;38732;49.556;6.286;2023-03-23T00:34:53;98767.63;;;14.07;70.35
51321;BME280;38732;49.556;6.286;2023-03-23T00:37:22;98781.41;;;12.50;77.25
51321;BME280;38732;49.556;6.286;2023-03-23T00:39:50;98771.94;;;13.34;74.05
51321;BME280;38732;49.556;6.286;2023-03-23T00:42:18;98774.84;;;12.77;75.25
51321;BME280;38732;49.556;6.286;2023-03-23T00:44:46;98765.38;;;13.18;75.87
51321;BME280;38732;49.556;6.286;2023-03-23T00:47:15;98756.91;;;14.52;69.61
51321;BME280;38732;49.556;6.286;2023-03-23T00:49:43;98767.19;;;15.17;66.31
51321;BME280;38732;49.556;6.286;2023-03-23T00:52:11;98769.84;;;15.44;66.46
51321;BME280;38732;49.556;6.286;2023-03-23T00:54:39;98760.09;;;15.50;67.25
51321;BME280;38732;49.556;6.286;2023-03-23T00:57:07;98753.41;;;15.43;63.22
51321;BME280;38732;49.556;6.286;2023-03-23T00:59:36;98748.44;;;15.62;62.77
51321;BME280;38732;49.556;6.286;2023-03-23T01:02:04;98743.22;;;15.62;62.71
51321;BME280;38732;49.556;6.286;2023-03-23T01:04:32;98744.09;;;15.63;64.58
51321;BME280;38732;49.556;6.286;2023-03-23T01:07:00;98739.09;;;15.28;65.79
51321;BME280;38732;49.556;6.286;2023-03-23T01:09:28;98749.53;;;15.27;65.08
51321;BME280;38732;49.556;6.286;2023-03-23T01:11:57;98747.72;;;15.57;65.83
51321;BME280;38732;49.556;6.286;2023-03-23T01:14:25;98755.84;;;15.20;64.17
51321;BME280;38732;49.556;6.286;2023-03-23T01:16:53;98769.06;;;13.82;74.21
51321;BME280;38732;49.556;6.286;2023-03-23T01:19:21;98775.16;;;12.60;83.26
51321;BME280;38732;49.556;6.286;2023-03-23T01:21:50;98768.91;;;12.25;86.38
51321;BME280;38732;49.556;6.286;2023-03-23T01:24:18;98759.09;;;12.43;89.00
51321;BME280;38732;49.556;6.286;2023-03-23T01:26:47;98760.22;;;12.29;94.50
51321;BME280;38732;49.556;6.286;2023-03-23T01:29:15;98757.31;;;12.00;100.00
51321;BME280;38732;49.556;6.286;2023-03-23T01:31:43;98760.16;;;12.33;95.35
51321;BME280;38732;49.556;6.286;2023-03-23T01:34:11;98772.63;;;10.96;100.00
51321;BME280;38732;49.556;6.286;2023-03-23T01:36:40;98765.75;;;11.55;100.00
51321;BME280;38732;49.556;6.286;2023-03-23T01:39:08;98763.31;;;10.83;100.00
51321;BME280;38732;49.556;6.286;2023-03-23T01:41:36;98744.78;;;11.72;100.00
51321;BME280;38732;49.556;6.286;2023-03-23T01:44:06;98757.56;;;11.26;100.00
51321;BME280;38732;49.556;6.286;2023-03-23T01:46:35;98754.91;;;11.30;100.00
51321;BME280;38732;49.556;6.286;2023-03-23T01:49:25;98760.50;;;11.61;100.00
51321;BME280;38732;49.556;6.286;2023-03-23T01:52:00;98752.88;;;10.93;100.00
51321;BME280;38732;49.556;6.286;2023-03-23T01:54:30;98747.97;;;10.72;100.00
51321;BME280;38732;49.556;6.286;2023-03-23T01:57:04;98749.97;;;10.47;100.00
51321;BME280;38732;49.556;6.286;2023-03-23T01:59:35;98749.03;;;10.54;100.00
51321;BME280;38732;49.556;6.286;2023-03-23T02:02:03;98748.75;;;10.75;100.00
51321;BME280;38732;49.556;6.286;2023-03-23T02:04:33;98740.84;;;10.88;100.00
51321;BME280;38732;49.556;6.286;2023-03-23T02:07:02;98742.84;;;10.67;100.00
51321;BME280;38732;49.556;6.286;2023-03-23T02:09:31;98741.09;;;10.69;100.00
51321;BME280;38732;49.556;6.286;2023-03-23T02:11:59;98751.31;;;10.78;100.00
51321;BME280;38732;49.556;6.286;2023-03-23T02:14:28;98744.28;;;11.52;100.00
51321;BME280;38732;49.556;6.286;2023-03-23T02:17:02;98755.00;;;10.59;100.00
51321;BME280;38732;49.556;6.286;2023-03-23T02:34:00;98760.19;;;10.56;100.00
51321;BME280;38732;49.556;6.286;2023-03-23T02:36:42;98759.41;;;10.48;100.00
51321;BME280;38732;49.556;6.286;2023-03-23T02:39:21;98743.94;;;10.48;100.00
51321;BME280;38732;49.556;6.286;2023-03-23T02:41:57;98747.06;;;10.73;100.00
51321;BME280;38732;49.556;6.286;2023-03-23T02:44:28;98743.63;;;10.72;100.00
51321;BME280;38732;49.556;6.286;2023-03-23T02:47:00;98740.44;;;10.52;100.00
51321;BME280;38732;49.556;6.286;2023-03-23T02:49:32;98751.78;;;10.37;100.00
51321;BME280;38732;49.556;6.286;2023-03-23T02:52:08;98758.75;;;10.26;100.00
51321;BME280;38732;49.556;6.286;2023-03-23T02:54:37;98751.88;;;10.31;100.00
51321;BME280;38732;49.556;6.286;2023-03-23T02:57:05;98751.03;;;10.23;100.00
51321;BME280;38732;49.556;6.286;2023-03-23T02:59:34;98741.56;;;10.28;100.00
51321;BME280;38732;49.556;6.286;2023-03-23T03:02:07;98749.00;;;10.58;100.00
51321;BME280;38732;49.556;6.286;2023-03-23T03:04:38;98741.22;;;10.60;100.00
51321;BME280;38732;49.556;6.286;2023-03-23T03:07:15;98739.91;;;10.95;100.00
51321;BME280;38732;49.556;6.286;2023-03-23T03:09:58;98726.72;;;11.15;100.00
51321;BME280;38732;49.556;6.286;2023-03-23T03:12:40;98713.38;;;11.44;100.00
51321;BME280;38732;49.556;6.286;2023-03-23T03:15:26;98734.69;;;10.98;100.00
51321;BME280;38732;49.556;6.286;2023-03-23T03:18:04;98741.00;;;10.77;100.00
51321;BME280;38732;49.556;6.286;2023-03-23T03:20:38;98746.72;;;11.02;100.00
51321;BME280;38732;49.556;6.286;2023-03-23T03:23:10;98744.94;;;11.63;100.00
51321;BME280;38732;49.556;6.286;2023-03-23T03:25:41;98753.50;;;11.09;100.00
51321;BME280;38732;49.556;6.286;2023-03-23T03:28:11;98742.66;;;11.99;100.00
51321;BME280;38732;49.556;6.286;2023-03-23T03:30:40;98729.63;;;12.50;100.00
51321;BME280;38732;49.556;6.286;2023-03-23T03:33:10;98742.28;;;11.12;100.00
51321;BME280;38732;49.556;6.286;2023-03-23T03:35:40;98748.00;;;10.67;100.00
51321;BME280;38732;49.556;6.286;2023-03-23T03:38:10;98744.13;;;11.61;100.00
51321;BME280;38732;49.556;6.286;2023-03-23T03:40:39;98741.88;;;11.39;100.00
51321;BME280;38732;49.556;6.286;2023-03-23T03:43:07;98744.22;;;10.96;100.00
51321;BME280;38732;49.556;6.286;2023-03-23T03:45:35;98736.06;;;11.79;100.00
51321;BME280;38732;49.556;6.286;2023-03-23T03:48:03;98718.94;;;12.23;100.00
51321;BME280;38732;49.556;6.286;2023-03-23T03:50:32;98733.16;;;11.45;100.00
51321;BME280;38732;49.556;6.286;2023-03-23T03:53:00;98738.84;;;11.08;100.00
51321;BME280;38732;49.556;6.286;2023-03-23T03:55:28;98746.16;;;10.77;100.00
51321;BME280;38732;49.556;6.286;2023-03-23T03:57:57;98729.53;;;10.99;100.00
51321;BME280;38732;49.556;6.286;2023-03-23T04:00:25;98728.22;;;11.28;100.00
51321;BME280;38732;49.556;6.286;2023-03-23T04:02:53;98747.75;;;10.87;100.00
51321;BME280;38732;49.556;6.286;2023-03-23T04:05:22;98735.88;;;11.93;100.00
51321;BME280;38732;49.556;6.286;2023-03-23T04:07:50;98748.25;;;11.15;100.00
51321;BME280;38732;49.556;6.286;2023-03-23T04:10:20;98752.56;;;10.48;100.00
51321;BME280;38732;49.556;6.286;2023-03-23T04:12:49;98739.09;;;11.53;100.00
51321;BME280;38732;49.556;6.286;2023-03-23T04:15:17;98735.91;;;11.90;100.00
51321;BME280;38732;49.556;6.286;2023-03-23T04:17:45;98731.75;;;12.28;100.00
51321;BME280;38732;49.556;6.286;2023-03-23T04:20:13;98750.63;;;11.29;100.00
51321;BME280;38732;49.556;6.286;2023-03-23T04:22:42;98755.09;;;11.18;100.00
51321;BME280;38732;49.556;6.286;2023-03-23T04:25:11;98754.06;;;11.31;100.00
51321;BME280;38732;49.556;6.286;2023-03-23T04:27:40;98758.03;;;11.54;100.00
51321;BME280;38732;49.556;6.286;2023-03-23T04:30:09;98747.91;;;11.94;100.00
51321;BME280;38732;49.556;6.286;2023-03-23T04:32:38;98759.44;;;11.16;100.00
51321;BME280;38732;49.556;6.286;2023-03-23T04:35:08;98754.75;;;11.42;100.00
51321;BME280;38732;49.556;6.286;2023-03-23T04:37:37;98765.13;;;11.41;100.00
51321;BME280;38732;49.556;6.286;2023-03-23T04:40:06;98761.75;;;11.92;100.00
51321;BME280;38732;49.556;6.286;2023-03-23T04:42:35;98772.00;;;11.42;100.00
51321;BME280;38732;49.556;6.286;2023-03-23T04:45:04;98768.19;;;11.64;100.00
51321;BME280;38732;49.556;6.286;2023-03-23T04:47:35;98761.91;;;11.81;100.00
51321;BME280;38732;49.556;6.286;2023-03-23T04:50:04;98761.69;;;11.95;100.00
51321;BME280;38732;49.556;6.286;2023-03-23T04:52:33;98771.38;;;11.23;100.00
51321;BME280;38732;49.556;6.286;2023-03-23T04:55:01;98759.78;;;10.88;100.00
51321;BME280;38732;49.556;6.286;2023-03-23T04:57:29;98759.22;;;10.66;100.00
51321;BME280;38732;49.556;6.286;2023-03-23T04:59:58;98764.41;;;11.28;100.00
51321;BME280;38732;49.556;6.286;2023-03-23T05:02:26;98759.56;;;11.65;100.00
51321;BME280;38732;49.556;6.286;2023-03-23T05:04:54;98756.75;;;11.79;100.00
51321;BME280;38732;49.556;6.286;2023-03-23T05:07:23;98755.63;;;11.40;100.00
51321;BME280;38732;49.556;6.286;2023-03-23T05:09:51;98762.50;;;11.42;100.00
51321;BME280;38732;49.556;6.286;2023-03-23T05:12:19;98768.00;;;11.18;100.00
51321;BME280;38732;49.556;6.286;2023-03-23T05:14:47;98749.69;;;11.36;100.00
51321;BME280;38732;49.556;6.286;2023-03-23T05:17:16;98750.56;;;12.39;100.00
51321;BME280;38732;49.556;6.286;2023-03-23T05:19:44;98751.28;;;11.98;100.00
51321;BME280;38732;49.556;6.286;2023-03-23T05:22:16;98751.72;;;11.70;100.00
51321;BME280;38732;49.556;6.286;2023-03-23T05:24:44;98752.63;;;11.68;100.00
51321;BME280;38732;49.556;6.286;2023-03-23T05:27:13;98741.75;;;12.48;100.00
51321;BME280;38732;49.556;6.286;2023-03-23T05:29:41;98746.03;;;12.04;100.00
51321;BME280;38732;49.556;6.286;2023-03-23T05:32:09;98743.59;;;11.95;100.00
51321;BME280;38732;49.556;6.286;2023-03-23T05:34:38;98741.38;;;11.70;100.00
51321;BME280;38732;49.556;6.286;2023-03-23T05:37:06;98752.44;;;11.22;100.00
51321;BME280;38732;49.556;6.286;2023-03-23T05:39:34;98733.41;;;11.28;100.00
51321;BME280;38732;49.556;6.286;2023-03-23T05:42:03;98753.44;;;11.12;100.00
51321;BME280;38732;49.556;6.286;2023-03-23T05:44:32;98769.00;;;11.09;100.00
51321;BME280;38732;49.556;6.286;2023-03-23T05:47:00;98749.69;;;11.35;100.00
51321;BME280;38732;49.556;6.286;2023-03-23T05:49:28;98749.25;;;12.15;100.00
51321;BME280;38732;49.556;6.286;2023-03-23T05:51:56;98741.38;;;11.70;100.00
51321;BME280;38732;49.556;6.286;2023-03-23T05:54:24;98745.72;;;12.21;100.00
51321;BME280;38732;49.556;6.286;2023-03-23T05:56:53;98760.97;;;11.86;100.00
51321;BME280;38732;49.556;6.286;2023-03-23T05:59:21;98768.56;;;11.97;100.00
51321;BME280;38732;49.556;6.286;2023-03-23T06:01:51;98766.19;;;11.83;100.00
51321;BME280;38732;49.556;6.286;2023-03-23T06:04:20;98758.63;;;12.22;100.00
51321;BME280;38732;49.556;6.286;2023-03-23T06:06:48;98757.97;;;11.57;100.00
51321;BME280;38732;49.556;6.286;2023-03-23T06:09:16;98754.28;;;11.72;100.00
51321;BME280;38732;49.556;6.286;2023-03-23T06:11:45;98756.94;;;11.69;100.00
51321;BME280;38732;49.556;6.286;2023-03-23T06:14:13;98767.69;;;12.46;100.00
51321;BME280;38732;49.556;6.286;2023-03-23T06:16:41;98771.81;;;11.53;100.00
51321;BME280;38732;49.556;6.286;2023-03-23T06:19:10;98786.53;;;11.48;100.00
51321;BME280;38732;49.556;6.286;2023-03-23T06:21:38;98785.03;;;11.33;100.00
51321;BME280;38732;49.556;6.286;2023-03-23T06:24:06;98778.09;;;11.36;100.00
51321;BME280;38732;49.556;6.286;2023-03-23T06:26:37;98785.34;;;12.24;100.00
51321;BME280;38732;49.556;6.286;2023-03-23T06:29:06;98789.91;;;11.53;100.00
51321;BME280;38732;49.556;6.286;2023-03-23T06:31:34;98800.53;;;11.36;100.00
51321;BME280;38732;49.556;6.286;2023-03-23T06:34:02;98814.97;;;11.49;100.00
51321;BME280;38732;49.556;6.286;2023-03-23T06:36:30;98820.63;;;11.14;100.00
51321;BME280;38732;49.556;6.286;2023-03-23T06:38:58;98835.13;;;11.24;100.00
51321;BME280;38732;49.556;6.286;2023-03-23T06:41:27;98844.56;;;11.25;100.00
51321;BME280;38732;49.556;6.286;2023-03-23T06:43:55;98848.53;;;11.52;100.00
51321;BME280;38732;49.556;6.286;2023-03-23T06:46:23;98858.59;;;12.29;100.00
51321;BME280;38732;49.556;6.286;2023-03-23T06:48:51;98863.69;;;12.36;100.00
51321;BME280;38732;49.556;6.286;2023-03-23T06:51:19;98875.09;;;10.94;100.00
51321;BME280;38732;49.556;6.286;2023-03-23T06:53:48;98880.31;;;10.88;100.00
51321;BME280;38732;49.556;6.286;2023-03-23T06:56:16;98877.81;;;10.80;100.00
51321;BME280;38732;49.556;6.286;2023-03-23T06:58:44;98876.00;;;11.61;100.00
51321;BME280;38732;49.556;6.286;2023-03-23T07:01:12;98874.16;;;11.69;100.00
51321;BME280;38732;49.556;6.286;2023-03-23T07:03:41;98870.41;;;11.27;100.00
51321;BME280;38732;49.556;6.286;2023-03-23T07:06:10;98888.09;;;11.57;100.00
51321;BME280;38732;49.556;6.286;2023-03-23T07:08:38;98881.41;;;10.67;100.00
51321;BME280;38732;49.556;6.286;2023-03-23T07:11:07;98885.16;;;11.18;100.00
51321;BME280;38732;49.556;6.286;2023-03-23T07:13:35;98882.81;;;11.65;100.00
51321;BME280;38732;49.556;6.286;2023-03-23T07:16:07;98871.78;;;12.13;100.00
51321;BME280;38732;49.556;6.286;2023-03-23T07:18:35;98878.91;;;12.00;100.00
51321;BME280;38732;49.556;6.286;2023-03-23T07:21:03;98880.00;;;11.83;100.00
51321;BME280;38732;49.556;6.286;2023-03-23T07:23:32;98882.09;;;11.57;100.00
51321;BME280;38732;49.556;6.286;2023-03-23T07:26:00;98872.03;;;11.99;100.00
51321;BME280;38732;49.556;6.286;2023-03-23T07:28:29;98885.72;;;11.40;100.00
51321;BME280;38732;49.556;6.286;2023-03-23T07:30:57;98871.66;;;12.22;100.00
51321;BME280;38732;49.556;6.286;2023-03-23T07:33:26;98871.50;;;11.06;100.00
51321;BME280;38732;49.556;6.286;2023-03-23T07:35:54;98868.66;;;11.29;100.00
51321;BME280;38732;49.556;6.286;2023-03-23T07:38:22;98846.47;;;12.32;100.00
51321;BME280;38732;49.556;6.286;2023-03-23T07:40:50;98851.41;;;11.93;100.00
51321;BME280;38732;49.556;6.286;2023-03-23T07:43:18;98848.84;;;12.44;100.00
51321;BME280;38732;49.556;6.286;2023-03-23T07:45:47;98836.44;;;12.13;100.00
51321;BME280;38732;49.556;6.286;2023-03-23T07:48:15;98841.44;;;12.72;100.00
51321;BME280;38732;49.556;6.286;2023-03-23T07:50:43;98842.91;;;12.37;100.00
51321;BME280;38732;49.556;6.286;2023-03-23T07:53:11;98846.31;;;12.41;100.00
51321;BME280;38732;49.556;6.286;2023-03-23T07:55:40;98854.06;;;11.90;100.00
51321;BME280;38732;49.556;6.286;2023-03-23T07:58:08;98849.06;;;12.32;100.00
51321;BME280;38732;49.556;6.286;2023-03-23T08:00:37;98853.81;;;12.56;100.00
51321;BME280;38732;49.556;6.286;2023-03-23T08:03:05;98865.72;;;11.55;100.00
51321;BME280;38732;49.556;6.286;2023-03-23T08:05:33;98864.06;;;12.11;100.00
51321;BME280;38732;49.556;6.286;2023-03-23T08:08:02;98878.03;;;12.01;100.00
51321;BME280;38732;49.556;6.286;2023-03-23T08:10:30;98890.94;;;11.39;100.00
51321;BME280;38732;49.556;6.286;2023-03-23T08:12:58;98888.09;;;11.57;100.00
51321;BME280;38732;49.556;6.286;2023-03-23T08:15:27;98889.06;;;12.12;100.00
51321;BME280;38732;49.556;6.286;2023-03-23T08:17:55;98896.94;;;11.39;100.00
51321;BME280;38732;49.556;6.286;2023-03-23T08:20:23;98896.31;;;11.22;100.00
51321;BME280;38732;49.556;6.286;2023-03-23T08:22:53;98890.88;;;11.42;100.00
51321;BME280;38732;49.556;6.286;2023-03-23T08:25:23;98886.34;;;12.21;100.00
51321;BME280;38732;49.556;6.286;2023-03-23T08:27:53;98895.00;;;12.19;100.00
51321;BME280;38732;49.556;6.286;2023-03-23T08:30:21;98899.38;;;11.52;100.00
51321;BME280;38732;49.556;6.286;2023-03-23T08:32:51;98893.84;;;12.37;100.00
51321;BME280;38732;49.556;6.286;2023-03-23T08:35:19;98905.97;;;11.74;100.00
51321;BME280;38732;49.556;6.286;2023-03-23T08:37:47;98906.72;;;11.16;100.00
51321;BME280;38732;49.556;6.286;2023-03-23T08:40:16;98906.59;;;11.27;100.00
51321;BME280;38732;49.556;6.286;2023-03-23T08:42:46;98905.91;;;12.38;100.00
51321;BME280;38732;49.556;6.286;2023-03-23T08:45:20;98895.78;;;12.24;100.00
51321;BME280;38732;49.556;6.286;2023-03-23T08:47:50;98908.78;;;12.19;100.00
51321;BME280;38732;49.556;6.286;2023-03-23T08:50:22;98906.34;;;13.11;100.00
51321;BME280;38732;49.556;6.286;2023-03-23T08:52:51;98910.16;;;12.40;100.00
51321;BME280;38732;49.556;6.286;2023-03-23T08:55:20;98914.63;;;11.73;100.00
51321;BME280;38732;49.556;6.286;2023-03-23T08:57:49;98914.78;;;11.61;100.00
51321;BME280;38732;49.556;6.286;2023-03-23T09:00:19;98910.25;;;11.77;100.00
51321;BME280;38732;49.556;6.286;2023-03-23T09:02:50;98906.53;;;11.98;100.00
51321;BME280;38732;49.556;6.286;2023-03-23T09:05:21;98903.94;;;12.54;100.00
51321;BME280;38732;49.556;6.286;2023-03-23T09:07:51;98915.06;;;12.04;100.00
51321;BME280;38732;49.556;6.286;2023-03-23T09:10:21;98910.72;;;12.06;100.00
51321;BME280;38732;49.556;6.286;2023-03-23T09:12:49;98913.50;;;12.98;100.00
51321;BME280;38732;49.556;6.286;2023-03-23T09:15:18;98905.72;;;12.98;100.00
51321;BME280;38732;49.556;6.286;2023-03-23T09:17:49;98902.78;;;12.17;100.00
51321;BME280;38732;49.556;6.286;2023-03-23T09:20:20;98920.78;;;12.25;100.00
51321;BME280;38732;49.556;6.286;2023-03-23T09:22:51;98919.91;;;11.62;100.00
51321;BME280;38732;49.556;6.286;2023-03-23T09:25:23;98916.50;;;11.60;100.00
51321;BME280;38732;49.556;6.286;2023-03-23T09:27:55;98913.31;;;13.07;100.00
51321;BME280;38732;49.556;6.286;2023-03-23T09:30:25;98914.41;;;12.95;100.00
51321;BME280;38732;49.556;6.286;2023-03-23T09:32:54;98928.00;;;12.06;100.00
51321;BME280;38732;49.556;6.286;2023-03-23T09:35:23;98926.91;;;12.72;100.00
51321;BME280;38732;49.556;6.286;2023-03-23T09:37:52;98941.03;;;11.97;100.00
51321;BME280;38732;49.556;6.286;2023-03-23T09:40:26;98921.63;;;12.27;100.00
51321;BME280;38732;49.556;6.286;2023-03-23T09:43:32;98932.78;;;12.82;100.00
51321;BME280;38732;49.556;6.286;2023-03-23T09:49:12;98937.88;;;13.34;100.00
51321;BME280;38732;49.556;6.286;2023-03-23T09:52:03;98938.38;;;12.59;100.00
51321;BME280;38732;49.556;6.286;2023-03-23T09:54:36;98941.50;;;12.78;100.00
51321;BME280;38732;49.556;6.286;2023-03-23T10:02:55;98932.66;;;12.89;100.00
51321;BME280;38732;49.556;6.286;2023-03-23T10:05:36;98952.97;;;12.08;100.00
51321;BME280;38732;49.556;6.286;2023-03-23T10:08:11;98943.94;;;12.36;100.00
51321;BME280;38732;49.556;6.286;2023-03-23T10:11:21;98951.91;;;12.20;100.00
51321;BME280;38732;49.556;6.286;2023-03-23T10:14:19;98956.47;;;13.10;100.00
51321;BME280;38732;49.556;6.286;2023-03-23T10:17:16;98955.03;;;12.93;100.00
51321;BME280;38732;49.556;6.286;2023-03-23T10:22:32;98972.63;;;12.74;100.00
51321;BME280;38732;49.556;6.286;2023-03-23T10:27:50;98949.09;;;12.36;100.00
51321;BME280;38732;49.556;6.286;2023-03-23T10:30:36;98959.16;;;13.52;100.00
51321;BME280;38732;49.556;6.286;2023-03-23T10:33:14;98948.34;;;13.30;100.00
51321;BME280;38732;49.556;6.286;2023-03-23T10:38:50;98954.00;;;13.02;100.00
51321;BME280;38732;49.556;6.286;2023-03-23T10:41:21;98963.19;;;13.65;100.00
51321;BME280;38732;49.556;6.286;2023-03-23T10:43:49;98945.09;;;13.17;100.00
51321;BME280;38732;49.556;6.286;2023-03-23T10:46:49;98952.59;;;13.34;100.00
51321;BME280;38732;49.556;6.286;2023-03-23T10:49:43;98960.31;;;12.89;100.00
51321;BME280;38732;49.556;6.286;2023-03-23T10:52:29;98947.22;;;12.95;100.00
51321;BME280;38732;49.556;6.286;2023-03-23T10:55:10;98942.31;;;13.29;100.00
51321;BME280;38732;49.556;6.286;2023-03-23T10:57:41;98940.38;;;13.39;100.00
51321;BME280;38732;49.556;6.286;2023-03-23T11:00:20;98941.88;;;13.06;100.00
51321;BME280;38732;49.556;6.286;2023-03-23T11:03:48;98933.94;;;13.13;100.00
51321;BME280;38732;49.556;6.286;2023-03-23T11:06:03;98935.56;;;13.17;100.00
51321;BME280;38732;49.556;6.286;2023-03-23T11:08:37;98926.16;;;13.13;98.80
51321;BME280;38732;49.556;6.286;2023-03-23T11:11:10;98924.09;;;13.74;100.00
51321;BME280;38732;49.556;6.286;2023-03-23T11:13:42;98931.66;;;14.22;97.08
51321;BME280;38732;49.556;6.286;2023-03-23T11:16:22;98942.41;;;13.67;98.62
51321;BME280;38732;49.556;6.286;2023-03-23T11:18:51;98931.03;;;13.30;100.00
51321;BME280;38732;49.556;6.286;2023-03-23T11:21:21;98928.22;;;13.83;100.00
51321;BME280;38732;49.556;6.286;2023-03-23T11:23:57;98920.28;;;14.28;96.64
51321;BME280;38732;49.556;6.286;2023-03-23T11:26:30;98911.78;;;14.21;97.71
51321;BME280;38732;49.556;6.286;2023-03-23T11:29:06;98908.91;;;14.32;96.38
51321;BME280;38732;49.556;6.286;2023-03-23T11:31:42;98898.13;;;13.76;99.11
51321;BME280;38732;49.556;6.286;2023-03-23T11:34:31;98888.84;;;13.64;99.39
51321;BME280;38732;49.556;6.286;2023-03-23T11:37:06;98880.28;;;14.35;96.23
51321;BME280;38732;49.556;6.286;2023-03-23T11:39:47;98891.63;;;13.56;99.50
51321;BME280;38732;49.556;6.286;2023-03-23T11:42:21;98900.00;;;13.26;100.00
51321;BME280;38732;49.556;6.286;2023-03-23T11:44:49;98900.25;;;13.96;100.00
51321;BME280;38732;49.556;6.286;2023-03-23T11:49:57;98895.63;;;14.44;98.06
51321;BME280;38732;49.556;6.286;2023-03-23T11:55:22;98915.81;;;13.57;100.00
51321;BME280;38732;49.556;6.286;2023-03-23T11:57:52;98894.91;;;13.21;100.00
51321;BME280;38732;49.556;6.286;2023-03-23T12:00:22;98897.78;;;13.51;100.00
51321;BME280;38732;49.556;6.286;2023-03-23T12:03:11;98892.22;;;13.26;100.00
51321;BME280;38732;49.556;6.286;2023-03-23T12:05:54;98889.94;;;13.54;100.00
51321;BME280;38732;49.556;6.286;2023-03-23T12:08:42;98902.63;;;13.23;100.00
51321;BME280;38732;49.556;6.286;2023-03-23T12:19:35;98919.41;;;13.90;100.00
51321;BME280;38732;49.556;6.286;2023-03-23T12:22:17;98916.88;;;13.48;96.94
51321;BME280;38732;49.556;6.286;2023-03-23T12:25:12;98918.06;;;13.30;98.37
51321;BME280;38732;49.556;6.286;2023-03-23T12:31:31;98904.25;;;13.30;100.00
51321;BME280;38732;49.556;6.286;2023-03-23T12:34:11;98907.56;;;13.38;100.00
51321;BME280;38732;49.556;6.286;2023-03-23T12:42:31;98894.69;;;14.13;93.22
51321;BME280;38732;49.556;6.286;2023-03-23T12:50:25;98877.22;;;14.55;88.53
51321;BME280;38732;49.556;6.286;2023-03-23T12:53:02;98880.28;;;14.70;85.31
51321;BME280;38732;49.556;6.286;2023-03-23T12:55:47;98881.00;;;14.05;89.39
51321;BME280;38732;49.556;6.286;2023-03-23T12:58:20;98879.47;;;15.31;87.28
51321;BME280;38732;49.556;6.286;2023-03-23T13:06:42;98860.22;;;19.17;59.25
51321;BME280;38732;49.556;6.286;2023-03-23T13:12:25;98876.63;;;18.59;61.63
51321;BME280;38732;49.556;6.286;2023-03-23T13:15:13;98874.28;;;18.32;59.64
51321;BME280;38732;49.556;6.286;2023-03-23T13:20:31;98874.69;;;17.78;71.78
51321;BME280;38732;49.556;6.286;2023-03-23T13:23:19;98881.53;;;17.11;72.30
51321;BME280;38732;49.556;6.286;2023-03-23T13:28:31;98864.25;;;17.78;72.21
51321;BME280;38732;49.556;6.286;2023-03-23T13:31:22;98866.78;;;17.79;71.39
51321;BME280;38732;49.556;6.286;2023-03-23T13:33:53;98866.16;;;16.27;77.29
51321;BME280;38732;49.556;6.286;2023-03-23T13:36:36;98877.56;;;15.96;77.27
51321;BME280;38732;49.556;6.286;2023-03-23T13:39:28;98882.66;;;15.41;79.93
51321;BME280;38732;49.556;6.286;2023-03-23T13:42:02;98869.81;;;15.05;80.65
51321;BME280;38732;49.556;6.286;2023-03-23T13:52:36;98884.03;;;14.23;86.10
51321;BME280;38732;49.556;6.286;2023-03-23T13:57:57;98864.75;;;14.32;85.41
51321;BME280;38732;49.556;6.286;2023-03-23T14:05:35;98865.59;;;14.69;80.26
51321;BME280;38732;49.556;6.286;2023-03-23T14:11:00;98865.75;;;14.62;79.64
51321;BME280;38732;49.556;6.286;2023-03-23T14:16:23;98853.78;;;14.57;77.30
51321;BME280;38732;49.556;6.286;2023-03-23T14:18:57;98857.91;;;14.65;76.09
51321;BME280;38732;49.556;6.286;2023-03-23T14:21:36;98845.41;;;14.45;75.97
51321;BME280;38732;49.556;6.286;2023-03-23T14:24:10;98846.69;;;14.95;76.52
51321;BME280;38732;49.556;6.286;2023-03-23T14:26:39;98839.16;;;15.46;76.14
51321;BME280;38732;49.556;6.286;2023-03-23T14:29:11;98841.16;;;15.37;76.33
51321;BME280;38732;49.556;6.286;2023-03-23T14:31:40;98848.94;;;15.66;77.00
51321;BME280;38732;49.556;6.286;2023-03-23T14:34:19;98861.97;;;14.74;79.78
51321;BME280;38732;49.556;6.286;2023-03-23T14:36:48;98853.56;;;14.97;81.05
51321;BME280;38732;49.556;6.286;2023-03-23T14:41:44;98838.13;;;14.93;81.26
51321;BME280;38732;49.556;6.286;2023-03-23T14:44:31;98835.78;;;14.82;80.01
51321;BME280;38732;49.556;6.286;2023-03-23T14:47:04;98836.75;;;15.09;81.58
51321;BME280;38732;49.556;6.286;2023-03-23T14:49:40;98831.69;;;15.04;79.42
51321;BME280;38732;49.556;6.286;2023-03-23T14:52:11;98832.81;;;15.55;75.16
51321;BME280;38732;49.556;6.286;2023-03-23T14:54:41;98843.34;;;14.91;77.23